Ataulfo Alves — C6ZV9 — position and weather

sailwx.info

Track history (hours):
 
Tides and Currents Weather Stations Pressure Air Temp Water Temp Dewpoint Dewpoint Depression Visibility Wind Speed Wind Dir Waves Ship Positions

Ataulfo Alves

Last reported at 2017-Aug-31 11:38 UTC. Time now 2017-Sep-24 19:18 UTC.
Position N 13°34' W 060°56'.
Warning: this ship's position is 24 days out of date.

Length 272 m; draft 9.5 m.

Type: Ship. MMSI: 311067800.

Date/timePositionNaut miles runAvg speedWind from/ knotsBaromVisibWave heightAir tempDewpointWater temp
2017-Aug-31 11:38N 13°34' W 060°56'26 9.3
2017-Aug-31 08:48N 13°59' W 061°04'3 0.2
2017-Aug-30 19:04N 13°59' W 061°01'0 1.2
2017-Aug-30 18:59N 13°59' W 061°01'2 3.3
2017-Aug-30 18:30N 14°00' W 061°03'1 1.1
2017-Aug-30 17:21N 14°01' W 061°04'0 1.0
2017-Aug-30 16:57N 14°01' W 061°03'1 2.3
2017-Aug-30 16:23N 14°02' W 061°02'2 0.5
2017-Aug-30 12:51N 14°03' W 061°01'0 0.0
2017-Aug-30 12:30N 14°03' W 061°01'0 0.1
2017-Aug-30 11:27N 14°03' W 061°01'0 0.0
2017-Aug-30 10:57N 14°03' W 061°01'0 0.1
2017-Aug-30 10:24N 14°03' W 061°01'0 0.0
2017-Aug-30 09:39N 14°03' W 061°01'0 0.0
2017-Aug-30 09:27N 14°03' W 061°01'0 0.0
2017-Aug-30 08:54N 14°03' W 061°01'0 0.0
2017-Aug-30 08:27N 14°03' W 061°01'0 0.0
2017-Aug-30 08:00N 14°03' W 061°01'0 0.0
2017-Aug-30 06:39N 14°03' W 061°01'0 0.1
2017-Aug-30 06:24N 14°03' W 061°01'0 0.0
2017-Aug-30 05:48N 14°03' W 061°01'0 0.1
2017-Aug-30 05:30N 14°03' W 061°01'0 0.0
2017-Aug-30 04:51N 14°03' W 061°01'0 0.0
2017-Aug-30 04:09N 14°03' W 061°01'0 0.0
2017-Aug-30 03:57N 14°03' W 061°01'0 0.0
2017-Aug-30 03:27N 14°03' W 061°01'0 0.1
2017-Aug-30 02:48N 14°03' W 061°01'0 0.1
2017-Aug-30 00:12N 14°03' W 061°01'0 0.0
2017-Aug-29 23:57N 14°03' W 061°01'0 0.1
2017-Aug-29 20:00N 14°03' W 061°01'0 0.0
2017-Aug-29 19:12N 14°03' W 061°01'0 0.0
2017-Aug-29 18:57N 14°03' W 061°01'0 0.0
2017-Aug-29 18:27N 14°03' W 061°01'0 0.0
2017-Aug-29 17:36N 14°03' W 061°01'0 0.2
2017-Aug-29 17:30N 14°03' W 061°01'0 0.0
2017-Aug-29 16:36N 14°03' W 061°01'0 0.2
2017-Aug-29 16:30N 14°03' W 061°01'0 0.0
2017-Aug-29 15:57N 14°03' W 061°01'0 0.1
2017-Aug-29 15:27N 14°03' W 061°01'0 0.2
2017-Aug-29 15:00N 14°03' W 061°01'0 0.2
2017-Aug-29 14:30N 14°03' W 061°01'0 0.0
2017-Aug-29 10:00N 14°03' W 061°01'0 0.1
2017-Aug-29 07:36N 14°03' W 061°01'0 0.1
2017-Aug-29 07:27N 14°03' W 061°01'0 0.1
2017-Aug-29 06:57N 14°03' W 061°01'0 0.0
2017-Aug-29 06:18N 14°03' W 061°01'0 0.0
2017-Aug-29 05:54N 14°03' W 061°01'0 0.1
2017-Aug-29 05:30N 14°03' W 061°01'0 0.0
2017-Aug-29 05:00N 14°03' W 061°01'0 0.0
2017-Aug-29 04:21N 14°03' W 061°01'0 0.0
2017-Aug-29 04:00N 14°03' W 061°01'0 0.0
2017-Aug-29 03:30N 14°03' W 061°01'0 0.0
2017-Aug-29 02:57N 14°03' W 061°01'0 0.0
2017-Aug-29 02:30N 14°03' W 061°01'0 0.1
2017-Aug-29 01:57N 14°03' W 061°01'0 0.2
2017-Aug-29 01:30N 14°03' W 061°01'0 0.1
2017-Aug-29 00:18N 14°03' W 061°01'0 0.0
2017-Aug-28 23:03N 14°03' W 061°01'0 0.0
2017-Aug-28 22:18N 14°03' W 061°01'0 0.0
2017-Aug-28 17:57N 14°03' W 061°01'0 0.0
2017-Aug-28 15:54N 14°03' W 061°01'0 0.0
2017-Aug-28 15:27N 14°03' W 061°01'0 0.0
2017-Aug-28 14:51N 14°03' W 061°01'0 0.1
2017-Aug-28 14:24N 14°03' W 061°01'0 0.0
2017-Aug-28 10:19N 14°03' W 061°01'0 0.1
2017-Aug-28 09:52N 14°03' W 061°01'0 0.1
2017-Aug-28 09:19N 14°03' W 061°01'0 0.0
2017-Aug-28 08:58N 14°03' W 061°01'0 0.0
2017-Aug-28 07:04N 14°03' W 061°01'0 0.1
2017-Aug-28 06:58N 14°03' W 061°01'0 0.1
2017-Aug-28 06:13N 14°03' W 061°01'0 0.1
2017-Aug-28 05:43N 14°03' W 061°01'0 0.1
2017-Aug-28 05:13N 14°03' W 061°01'0 0.1
2017-Aug-28 04:58N 14°03' W 061°01'0 0.1
2017-Aug-28 04:28N 14°03' W 061°01'0 0.1
2017-Aug-28 03:16N 14°03' W 061°01'0 0.3
2017-Aug-28 02:58N 14°03' W 061°01'0 0.0
2017-Aug-27 12:46N 14°03' W 061°01'0 0.0
2017-Aug-27 09:58N 14°03' W 061°01'0 0.0
2017-Aug-27 09:28N 14°03' W 061°01'0 0.0
2017-Aug-27 08:58N 14°03' W 061°01'0 0.0
2017-Aug-27 08:28N 14°03' W 061°01'0 0.1
2017-Aug-27 07:55N 14°03' W 061°01'0 0.1
2017-Aug-27 05:46N 14°03' W 061°01'0 0.1
2017-Aug-27 05:28N 14°03' W 061°01'0 0.0
2017-Aug-27 04:52N 14°03' W 061°01'0 0.0
2017-Aug-27 04:28N 14°03' W 061°01'0 0.0
2017-Aug-27 03:46N 14°03' W 061°01'0 0.0
2017-Aug-27 03:25N 14°03' W 061°01'0 0.0
2017-Aug-27 02:52N 14°03' W 061°01'0 0.0
2017-Aug-27 02:04N 14°03' W 061°01'0 0.0
2017-Aug-27 01:49N 14°03' W 061°01'0 0.2
2017-Aug-27 00:52N 14°03' W 061°01'0 0.1
2017-Aug-27 00:25N 14°03' W 061°01'0 0.0
2017-Aug-26 22:37N 14°03' W 061°01'0 0.0
2017-Aug-26 21:10N 14°03' W 061°01'0 0.0
2017-Aug-26 17:28N 14°03' W 061°01'0 0.0
2017-Aug-26 16:55N 14°03' W 061°01'0 0.0
2017-Aug-26 15:31N 14°03' W 061°01'0 0.0
2017-Aug-26 12:46N 14°03' W 061°01'0 0.2
2017-Aug-26 12:07N 14°03' W 061°01'0 0.1
2017-Aug-26 11:52N 14°03' W 061°01'0 0.0
2017-Aug-26 06:16N 14°03' W 061°01'0 0.0
2017-Aug-26 05:37N 14°03' W 061°01'0 0.0
2017-Aug-25 23:10N 14°03' W 061°01'0 0.1
2017-Aug-25 22:49N 14°03' W 061°01'0 0.1
2017-Aug-25 22:28N 14°03' W 061°01'0 0.0
2017-Aug-25 21:58N 14°03' W 061°01'0 0.0
2017-Aug-25 21:28N 14°03' W 061°01'0 0.0
2017-Aug-25 19:49N 14°03' W 061°01'0 0.4
2017-Aug-25 19:10N 14°03' W 061°01'0 0.4
2017-Aug-25 18:58N 14°03' W 061°01'0 0.2
2017-Aug-25 18:28N 14°03' W 061°00'0 0.1
2017-Aug-25 17:55N 14°03' W 061°00'0 0.2
2017-Aug-25 17:19N 14°03' W 061°01'0 0.0
2017-Aug-25 16:58N 14°03' W 061°01'0 0.0
2017-Aug-25 16:22N 14°03' W 061°01'0 0.0
2017-Aug-25 15:58N 14°03' W 061°01'0 0.1
2017-Aug-25 15:25N 14°03' W 061°01'0 0.0
2017-Aug-25 14:46N 14°03' W 061°01'0 0.0
2017-Aug-25 14:25N 14°03' W 061°01'0 0.0
2017-Aug-25 13:19N 14°03' W 061°01'0 0.0
2017-Aug-25 12:52N 14°03' W 061°01'0 0.1
2017-Aug-25 12:28N 14°03' W 061°01'0 0.2
2017-Aug-25 11:22N 14°03' W 061°01'0 0.1
2017-Aug-25 10:58N 14°03' W 061°01'0 0.1
2017-Aug-25 09:04N 14°03' W 061°01'0 0.1
2017-Aug-25 08:58N 14°03' W 061°01'0 0.0
2017-Aug-25 05:34N 14°03' W 061°01'0 0.1
2017-Aug-25 05:25N 14°03' W 061°01'0 0.0
2017-Aug-25 04:58N 14°03' W 061°01'0 0.1
2017-Aug-25 04:22N 14°03' W 061°01'0 0.0
2017-Aug-25 01:16N 14°03' W 061°01'0 0.0
2017-Aug-25 00:37N 14°03' W 061°01'0 0.0
2017-Aug-25 00:10N 14°03' W 061°01'0 0.0
2017-Aug-24 23:52N 14°03' W 061°01'0 0.0
2017-Aug-24 23:28N 14°03' W 061°01'0 0.0
2017-Aug-24 22:40N 14°03' W 061°01'0 0.0
2017-Aug-24 19:31N 14°03' W 061°01'0 0.0
2017-Aug-24 19:25N 14°03' W 061°01'0 0.0
2017-Aug-24 18:37N 14°03' W 061°01'0 0.0
2017-Aug-24 16:10N 14°03' W 061°01'0 0.1
2017-Aug-24 15:40N 14°03' W 061°01'0 0.1
2017-Aug-24 15:16N 14°03' W 061°01'0 0.0
2017-Aug-24 14:58N 14°03' W 061°01'0 0.0
2017-Aug-24 14:28N 14°03' W 061°01'0 0.0
2017-Aug-24 13:52N 14°03' W 061°01'0 0.0
2017-Aug-24 13:25N 14°03' W 061°01'0 0.0
2017-Aug-24 12:58N 14°03' W 061°01'0 0.0
2017-Aug-24 12:22N 14°03' W 061°01'0 0.0
2017-Aug-24 11:31N 14°03' W 061°01'0 0.1
2017-Aug-24 11:19N 14°03' W 061°01'0 0.2
2017-Aug-24 10:58N 14°03' W 061°01'0 0.2
2017-Aug-24 10:28N 14°03' W 061°00'0 0.0
2017-Aug-24 09:58N 14°03' W 061°00'0 0.0
2017-Aug-24 09:28N 14°03' W 061°01'0 0.0
2017-Aug-24 08:58N 14°03' W 061°00'0 0.1
2017-Aug-24 08:28N 14°03' W 061°00'0 0.0
2017-Aug-24 04:52N 14°03' W 061°00'0 0.1
2017-Aug-24 04:22N 14°03' W 061°01'0 0.1
2017-Aug-24 03:52N 14°03' W 061°01'0 0.1
2017-Aug-24 02:40N 14°03' W 061°01'0 0.1
2017-Aug-24 02:28N 14°03' W 061°01'0 0.1
2017-Aug-24 01:58N 14°03' W 061°01'0 0.0
2017-Aug-24 01:19N 14°03' W 061°01'0 0.1
2017-Aug-23 23:04N 14°03' W 061°01'0 0.1
2017-Aug-23 22:31N 14°03' W 061°00'0 0.1
2017-Aug-23 22:22N 14°03' W 061°00'0 0.0
2017-Aug-23 21:55N 14°03' W 061°00'0 0.0
2017-Aug-23 21:16N 14°03' W 061°01'0 0.0
2017-Aug-23 12:07N 14°03' W 061°00'0 0.0
2017-Aug-23 11:52N 14°03' W 061°00'0 0.2
2017-Aug-23 10:43N 14°03' W 061°00'0 0.0
2017-Aug-23 03:28N 14°03' W 061°00'0 0.1
2017-Aug-23 02:22N 14°03' W 061°00'0 0.0
2017-Aug-23 01:58N 14°03' W 061°01'0 0.0
2017-Aug-23 00:10N 14°03' W 061°01'0 0.1
2017-Aug-22 23:58N 14°03' W 061°01'0 0.0
2017-Aug-22 23:10N 14°03' W 061°01'0 0.3
2017-Aug-22 22:49N 14°03' W 061°00'0 0.3
2017-Aug-22 22:28N 14°03' W 061°00'0 0.0
2017-Aug-22 16:55N 14°03' W 061°01'0 0.1
2017-Aug-22 14:49N 14°03' W 061°01'0 0.1
2017-Aug-22 14:16N 14°03' W 061°01'0 0.0
2017-Aug-22 13:58N 14°03' W 061°01'0 0.1
2017-Aug-22 12:49N 14°03' W 061°01'0 0.1
2017-Aug-22 12:25N 14°03' W 061°01'0 0.0
2017-Aug-22 11:58N 14°03' W 061°01'0 0.0
2017-Aug-22 11:28N 14°03' W 061°01'0 0.1
2017-Aug-22 08:34N 14°03' W 061°00'0 0.0
2017-Aug-22 08:28N 14°03' W 061°00'0 0.0
2017-Aug-22 07:37N 14°03' W 061°00'0 0.0
2017-Aug-22 04:58N 14°03' W 061°00'0 0.2
2017-Aug-22 04:28N 14°03' W 061°01'0 0.1
2017-Aug-22 03:40N 14°03' W 061°01'0 0.1
2017-Aug-22 03:19N 14°03' W 061°01'0 0.0
2017-Aug-22 02:58N 14°03' W 061°01'0 0.1
2017-Aug-22 02:28N 14°03' W 061°01'0 0.0
2017-Aug-22 01:58N 14°03' W 061°01'0 0.0
2017-Aug-22 01:25N 14°03' W 061°01'0 0.0
2017-Aug-22 00:46N 14°03' W 061°01'0 0.1
2017-Aug-22 00:28N 14°03' W 061°01'0 0.0
2017-Aug-21 23:55N 14°03' W 061°01'0 0.0
2017-Aug-21 23:28N 14°03' W 061°01'0 0.0
2017-Aug-21 22:58N 14°03' W 061°01'0 0.2
2017-Aug-21 22:28N 14°03' W 061°00'0 0.0
2017-Aug-21 15:19N 14°03' W 061°00'0 0.1
2017-Aug-21 13:19N 14°03' W 061°01'0 0.1
2017-Aug-21 12:58N 14°03' W 061°01'0 0.0
2017-Aug-21 12:28N 14°03' W 061°01'0 0.2
2017-Aug-21 11:58N 14°03' W 061°01'  
Track history (hours):
 
Tides and Currents Weather Stations Pressure Air Temp Water Temp Dewpoint Dewpoint Depression Visibility Wind Speed Wind Dir Waves Ship Positions

Ataulfo Alves

Last reported at 2017-Aug-31 11:38 UTC. Time now 2017-Sep-24 19:18 UTC.
Position N 13°34' W 060°56'.
Warning: this ship's position is 24 days out of date.

Length 272 m; draft 9.5 m.

Type: Ship. MMSI: 311067800.

Date/timePositionNaut miles runAvg speedWind from/ knotsBaromVisibWave heightAir tempDewpointWater temp
2017-Aug-31 11:38N 13°34' W 060°56'26 9.3
2017-Aug-31 08:48N 13°59' W 061°04'3 0.2
2017-Aug-30 19:04N 13°59' W 061°01'0 1.2
2017-Aug-30 18:59N 13°59' W 061°01'2 3.3
2017-Aug-30 18:30N 14°00' W 061°03'1 1.1
2017-Aug-30 17:21N 14°01' W 061°04'0 1.0
2017-Aug-30 16:57N 14°01' W 061°03'1 2.3
2017-Aug-30 16:23N 14°02' W 061°02'2 0.5
2017-Aug-30 12:51N 14°03' W 061°01'0 0.0
2017-Aug-30 12:30N 14°03' W 061°01'0 0.1
2017-Aug-30 11:27N 14°03' W 061°01'0 0.0
2017-Aug-30 10:57N 14°03' W 061°01'0 0.1
2017-Aug-30 10:24N 14°03' W 061°01'0 0.0
2017-Aug-30 09:39N 14°03' W 061°01'0 0.0
2017-Aug-30 09:27N 14°03' W 061°01'0 0.0
2017-Aug-30 08:54N 14°03' W 061°01'0 0.0
2017-Aug-30 08:27N 14°03' W 061°01'0 0.0
2017-Aug-30 08:00N 14°03' W 061°01'0 0.0
2017-Aug-30 06:39N 14°03' W 061°01'0 0.1
2017-Aug-30 06:24N 14°03' W 061°01'0 0.0
2017-Aug-30 05:48N 14°03' W 061°01'0 0.1
2017-Aug-30 05:30N 14°03' W 061°01'0 0.0
2017-Aug-30 04:51N 14°03' W 061°01'0 0.0
2017-Aug-30 04:09N 14°03' W 061°01'0 0.0
2017-Aug-30 03:57N 14°03' W 061°01'0 0.0
2017-Aug-30 03:27N 14°03' W 061°01'0 0.1
2017-Aug-30 02:48N 14°03' W 061°01'0 0.1
2017-Aug-30 00:12N 14°03' W 061°01'0 0.0
2017-Aug-29 23:57N 14°03' W 061°01'0 0.1
2017-Aug-29 20:00N 14°03' W 061°01'0 0.0
2017-Aug-29 19:12N 14°03' W 061°01'0 0.0
2017-Aug-29 18:57N 14°03' W 061°01'0 0.0
2017-Aug-29 18:27N 14°03' W 061°01'0 0.0
2017-Aug-29 17:36N 14°03' W 061°01'0 0.2
2017-Aug-29 17:30N 14°03' W 061°01'0 0.0
2017-Aug-29 16:36N 14°03' W 061°01'0 0.2
2017-Aug-29 16:30N 14°03' W 061°01'0 0.0
2017-Aug-29 15:57N 14°03' W 061°01'0 0.1
2017-Aug-29 15:27N 14°03' W 061°01'0 0.2
2017-Aug-29 15:00N 14°03' W 061°01'0 0.2
2017-Aug-29 14:30N 14°03' W 061°01'0 0.0
2017-Aug-29 10:00N 14°03' W 061°01'0 0.1
2017-Aug-29 07:36N 14°03' W 061°01'0 0.1
2017-Aug-29 07:27N 14°03' W 061°01'0 0.1
2017-Aug-29 06:57N 14°03' W 061°01'0 0.0
2017-Aug-29 06:18N 14°03' W 061°01'0 0.0
2017-Aug-29 05:54N 14°03' W 061°01'0 0.1
2017-Aug-29 05:30N 14°03' W 061°01'0 0.0
2017-Aug-29 05:00N 14°03' W 061°01'0 0.0
2017-Aug-29 04:21N 14°03' W 061°01'0 0.0
2017-Aug-29 04:00N 14°03' W 061°01'0 0.0
2017-Aug-29 03:30N 14°03' W 061°01'0 0.0
2017-Aug-29 02:57N 14°03' W 061°01'0 0.0
2017-Aug-29 02:30N 14°03' W 061°01'0 0.1
2017-Aug-29 01:57N 14°03' W 061°01'0 0.2
2017-Aug-29 01:30N 14°03' W 061°01'0 0.1
2017-Aug-29 00:18N 14°03' W 061°01'0 0.0
2017-Aug-28 23:03N 14°03' W 061°01'0 0.0
2017-Aug-28 22:18N 14°03' W 061°01'0 0.0
2017-Aug-28 17:57N 14°03' W 061°01'0 0.0
2017-Aug-28 15:54N 14°03' W 061°01'0 0.0
2017-Aug-28 15:27N 14°03' W 061°01'0 0.0
2017-Aug-28 14:51N 14°03' W 061°01'0 0.1
2017-Aug-28 14:24N 14°03' W 061°01'0 0.0
2017-Aug-28 10:19N 14°03' W 061°01'0 0.1
2017-Aug-28 09:52N 14°03' W 061°01'0 0.1
2017-Aug-28 09:19N 14°03' W 061°01'0 0.0
2017-Aug-28 08:58N 14°03' W 061°01'0 0.0
2017-Aug-28 07:04N 14°03' W 061°01'0 0.1
2017-Aug-28 06:58N 14°03' W 061°01'0 0.1
2017-Aug-28 06:13N 14°03' W 061°01'0 0.1
2017-Aug-28 05:43N 14°03' W 061°01'0 0.1
2017-Aug-28 05:13N 14°03' W 061°01'0 0.1
2017-Aug-28 04:58N 14°03' W 061°01'0 0.1
2017-Aug-28 04:28N 14°03' W 061°01'0 0.1
2017-Aug-28 03:16N 14°03' W 061°01'0 0.3
2017-Aug-28 02:58N 14°03' W 061°01'0 0.0
2017-Aug-27 12:46N 14°03' W 061°01'0 0.0
2017-Aug-27 09:58N 14°03' W 061°01'0 0.0
2017-Aug-27 09:28N 14°03' W 061°01'0 0.0
2017-Aug-27 08:58N 14°03' W 061°01'0 0.0
2017-Aug-27 08:28N 14°03' W 061°01'0 0.1
2017-Aug-27 07:55N 14°03' W 061°01'0 0.1
2017-Aug-27 05:46N 14°03' W 061°01'0 0.1
2017-Aug-27 05:28N 14°03' W 061°01'0 0.0
2017-Aug-27 04:52N 14°03' W 061°01'0 0.0
2017-Aug-27 04:28N 14°03' W 061°01'0 0.0
2017-Aug-27 03:46N 14°03' W 061°01'0 0.0
2017-Aug-27 03:25N 14°03' W 061°01'0 0.0
2017-Aug-27 02:52N 14°03' W 061°01'0 0.0
2017-Aug-27 02:04N 14°03' W 061°01'0 0.0
2017-Aug-27 01:49N 14°03' W 061°01'0 0.2
2017-Aug-27 00:52N 14°03' W 061°01'0 0.1
2017-Aug-27 00:25N 14°03' W 061°01'0 0.0
2017-Aug-26 22:37N 14°03' W 061°01'0 0.0
2017-Aug-26 21:10N 14°03' W 061°01'0 0.0
2017-Aug-26 17:28N 14°03' W 061°01'0 0.0
2017-Aug-26 16:55N 14°03' W 061°01'0 0.0
2017-Aug-26 15:31N 14°03' W 061°01'0 0.0
2017-Aug-26 12:46N 14°03' W 061°01'0 0.2
2017-Aug-26 12:07N 14°03' W 061°01'0 0.1
2017-Aug-26 11:52N 14°03' W 061°01'0 0.0
2017-Aug-26 06:16N 14°03' W 061°01'0 0.0
2017-Aug-26 05:37N 14°03' W 061°01'0 0.0
2017-Aug-25 23:10N 14°03' W 061°01'0 0.1
2017-Aug-25 22:49N 14°03' W 061°01'0 0.1
2017-Aug-25 22:28N 14°03' W 061°01'0 0.0
2017-Aug-25 21:58N 14°03' W 061°01'0 0.0
2017-Aug-25 21:28N 14°03' W 061°01'0 0.0
2017-Aug-25 19:49N 14°03' W 061°01'0 0.4
2017-Aug-25 19:10N 14°03' W 061°01'0 0.4
2017-Aug-25 18:58N 14°03' W 061°01'0 0.2
2017-Aug-25 18:28N 14°03' W 061°00'0 0.1
2017-Aug-25 17:55N 14°03' W 061°00'0 0.2
2017-Aug-25 17:19N 14°03' W 061°01'0 0.0
2017-Aug-25 16:58N 14°03' W 061°01'0 0.0
2017-Aug-25 16:22N 14°03' W 061°01'0 0.0
2017-Aug-25 15:58N 14°03' W 061°01'0 0.1
2017-Aug-25 15:25N 14°03' W 061°01'0 0.0
2017-Aug-25 14:46N 14°03' W 061°01'0 0.0
2017-Aug-25 14:25N 14°03' W 061°01'0 0.0
2017-Aug-25 13:19N 14°03' W 061°01'0 0.0
2017-Aug-25 12:52N 14°03' W 061°01'0 0.1
2017-Aug-25 12:28N 14°03' W 061°01'0 0.2
2017-Aug-25 11:22N 14°03' W 061°01'0 0.1
2017-Aug-25 10:58N 14°03' W 061°01'0 0.1
2017-Aug-25 09:04N 14°03' W 061°01'0 0.1
2017-Aug-25 08:58N 14°03' W 061°01'0 0.0
2017-Aug-25 05:34N 14°03' W 061°01'0 0.1
2017-Aug-25 05:25N 14°03' W 061°01'0 0.0
2017-Aug-25 04:58N 14°03' W 061°01'0 0.1
2017-Aug-25 04:22N 14°03' W 061°01'0 0.0
2017-Aug-25 01:16N 14°03' W 061°01'0 0.0
2017-Aug-25 00:37N 14°03' W 061°01'0 0.0
2017-Aug-25 00:10N 14°03' W 061°01'0 0.0
2017-Aug-24 23:52N 14°03' W 061°01'0 0.0
2017-Aug-24 23:28N 14°03' W 061°01'0 0.0
2017-Aug-24 22:40N 14°03' W 061°01'0 0.0
2017-Aug-24 19:31N 14°03' W 061°01'0 0.0
2017-Aug-24 19:25N 14°03' W 061°01'0 0.0
2017-Aug-24 18:37N 14°03' W 061°01'0 0.0
2017-Aug-24 16:10N 14°03' W 061°01'0 0.1
2017-Aug-24 15:40N 14°03' W 061°01'0 0.1
2017-Aug-24 15:16N 14°03' W 061°01'0 0.0
2017-Aug-24 14:58N 14°03' W 061°01'0 0.0
2017-Aug-24 14:28N 14°03' W 061°01'0 0.0
2017-Aug-24 13:52N 14°03' W 061°01'0 0.0
2017-Aug-24 13:25N 14°03' W 061°01'0 0.0
2017-Aug-24 12:58N 14°03' W 061°01'0 0.0
2017-Aug-24 12:22N 14°03' W 061°01'0 0.0
2017-Aug-24 11:31N 14°03' W 061°01'0 0.1
2017-Aug-24 11:19N 14°03' W 061°01'0 0.2
2017-Aug-24 10:58N 14°03' W 061°01'0 0.2
2017-Aug-24 10:28N 14°03' W 061°00'0 0.0
2017-Aug-24 09:58N 14°03' W 061°00'0 0.0
2017-Aug-24 09:28N 14°03' W 061°01'0 0.0
2017-Aug-24 08:58N 14°03' W 061°00'0 0.1
2017-Aug-24 08:28N 14°03' W 061°00'0 0.0
2017-Aug-24 04:52N 14°03' W 061°00'0 0.1
2017-Aug-24 04:22N 14°03' W 061°01'0 0.1
2017-Aug-24 03:52N 14°03' W 061°01'0 0.1
2017-Aug-24 02:40N 14°03' W 061°01'0 0.1
2017-Aug-24 02:28N 14°03' W 061°01'0 0.1
2017-Aug-24 01:58N 14°03' W 061°01'0 0.0
2017-Aug-24 01:19N 14°03' W 061°01'0 0.1
2017-Aug-23 23:04N 14°03' W 061°01'0 0.1
2017-Aug-23 22:31N 14°03' W 061°00'0 0.1
2017-Aug-23 22:22N 14°03' W 061°00'0 0.0
2017-Aug-23 21:55N 14°03' W 061°00'0 0.0
2017-Aug-23 21:16N 14°03' W 061°01'0 0.0
2017-Aug-23 12:07N 14°03' W 061°00'0 0.0
2017-Aug-23 11:52N 14°03' W 061°00'0 0.2
2017-Aug-23 10:43N 14°03' W 061°00'0 0.0
2017-Aug-23 03:28N 14°03' W 061°00'0 0.1
2017-Aug-23 02:22N 14°03' W 061°00'0 0.0
2017-Aug-23 01:58N 14°03' W 061°01'0 0.0
2017-Aug-23 00:10N 14°03' W 061°01'0 0.1
2017-Aug-22 23:58N 14°03' W 061°01'0 0.0
2017-Aug-22 23:10N 14°03' W 061°01'0 0.3
2017-Aug-22 22:49N 14°03' W 061°00'0 0.3
2017-Aug-22 22:28N 14°03' W 061°00'0 0.0
2017-Aug-22 16:55N 14°03' W 061°01'0 0.1
2017-Aug-22 14:49N 14°03' W 061°01'0 0.1
2017-Aug-22 14:16N 14°03' W 061°01'0 0.0
2017-Aug-22 13:58N 14°03' W 061°01'0 0.1
2017-Aug-22 12:49N 14°03' W 061°01'0 0.1
2017-Aug-22 12:25N 14°03' W 061°01'0 0.0
2017-Aug-22 11:58N 14°03' W 061°01'0 0.0
2017-Aug-22 11:28N 14°03' W 061°01'0 0.1
2017-Aug-22 08:34N 14°03' W 061°00'0 0.0
2017-Aug-22 08:28N 14°03' W 061°00'0 0.0
2017-Aug-22 07:37N 14°03' W 061°00'0 0.0
2017-Aug-22 04:58N 14°03' W 061°00'0 0.2
2017-Aug-22 04:28N 14°03' W 061°01'0 0.1
2017-Aug-22 03:40N 14°03' W 061°01'0 0.1
2017-Aug-22 03:19N 14°03' W 061°01'0 0.0
2017-Aug-22 02:58N 14°03' W 061°01'0 0.1
2017-Aug-22 02:28N 14°03' W 061°01'0 0.0
2017-Aug-22 01:58N 14°03' W 061°01'0 0.0
2017-Aug-22 01:25N 14°03' W 061°01'0 0.0
2017-Aug-22 00:46N 14°03' W 061°01'0 0.1
2017-Aug-22 00:28N 14°03' W 061°01'0 0.0
2017-Aug-21 23:55N 14°03' W 061°01'0 0.0
2017-Aug-21 23:28N 14°03' W 061°01'0 0.0
2017-Aug-21 22:58N 14°03' W 061°01'0 0.2
2017-Aug-21 22:28N 14°03' W 061°00'0 0.0
2017-Aug-21 15:19N 14°03' W 061°00'0 0.1
2017-Aug-21 13:19N 14°03' W 061°01'0 0.1
2017-Aug-21 12:58N 14°03' W 061°01'0 0.0
2017-Aug-21 12:28N 14°03' W 061°01'0 0.2
2017-Aug-21 11:58N 14°03' W 061°01'  

Dump ship's entire track history